Pagrindinis puslapis
METAR-TAF:

METAR-TAF

Oro uostai :

Vesterosas, Švedija

platuma: 59-35N, ilguma: 016-38E, Aukštis: 6 m

Dabartinis oras

Ataskaita buvo paskelbta 25 minutes, ne 04:50 UTC
Vėjas 3 kt nuo kintamojo kryptimis
Temperatūra 2°C
Drėgmė 64%
Slėgis 1023 hPa
Matomumas 10 km arba daugiau

METAR: ESOW 100450Z AUTO VRB03KT 9999 NCD 02/M04 Q1023

Laikas: 07:15 (05:15 UTC)

Prognozė

Ataskaita buvo paskelbta 17 valandos ir 45 minutes, ne 11:30 UTC
Prognozė galioja nuo 09 metu 12 UTC su 09 metu 14 UTC
Vėjas 15 kt iš Šiaurės/Šiaurės Vakarų su gūsio iki 25 kt
Matomumas 10 km arba daugiau
nėra debesų žemiau 1500 m ir nėra kamuolinių lietaus debesų

TAF: ESOW 091130Z 0912/0914 33015G25KT CAVOK

Orai ataskaitas ir orų prognozės (METAR, TAF).

turimą stotys yra geltonos ir raudonos taškus žemėlapyje.

Perkelti pele per norėdami pamatyti stoties vardą.

Tada spustelėkite, norėdami matyti oro stebėjimo ir prognozės.

Norėdami pakeisti žemėlapį: spustelėkite ant žalios mygtukų su juodo kryžiaus žemyn,; žalią mygtuką su brūkšneliu, jei norite nutolinti; arba žalių rodyklių gretimoms žemėlapius.


METAR-TAF: